createdAt,value
2019-02-08T00:01:46.543Z,37.97
2019-02-08T00:04:17.215Z,37.87
2019-02-08T00:06:47.291Z,38.67
2019-02-08T00:09:14.986Z,38.30
2019-02-08T00:11:42.408Z,34.87
2019-02-08T00:14:09.825Z,33.50
2019-02-08T00:16:38.390Z,34.40
2019-02-08T00:19:05.863Z,30.97
2019-02-08T00:21:33.403Z,31.60
2019-02-08T00:24:00.961Z,30.90
2019-02-08T00:26:28.318Z,30.80
2019-02-08T00:28:55.834Z,32.43
2019-02-08T00:31:23.640Z,32.53
2019-02-08T00:33:51.150Z,31.77
2019-02-08T00:36:20.255Z,31.50
2019-02-08T00:38:47.766Z,31.13
2019-02-08T00:41:15.222Z,29.60
2019-02-08T00:43:42.741Z,28.03
2019-02-08T00:46:10.134Z,29.50
2019-02-08T00:48:37.709Z,27.67
2019-02-08T00:51:05.205Z,28.43
2019-02-08T00:53:33.520Z,29.83
2019-02-08T00:56:01.289Z,29.23
2019-02-08T00:58:28.758Z,29.47
2019-02-08T01:00:56.112Z,28.30
2019-02-08T01:03:23.507Z,29.23
2019-02-08T01:05:50.978Z,29.53
2019-02-08T01:08:22.730Z,29.07
2019-02-08T01:10:50.145Z,26.57
2019-02-08T01:13:18.646Z,27.73
2019-02-08T01:15:46.059Z,29.07
2019-02-08T01:18:13.444Z,27.53
2019-02-08T01:20:40.997Z,27.27
2019-02-08T01:23:09.538Z,27.17
2019-02-08T01:25:37.153Z,29.93
2019-02-08T01:28:04.609Z,29.03
2019-02-08T01:30:32.675Z,29.13
2019-02-08T01:33:00.154Z,29.10
2019-02-08T01:35:27.458Z,30.20
2019-02-08T01:37:54.971Z,30.07
2019-02-08T01:40:37.941Z,29.37
2019-02-08T01:43:05.876Z,28.57
2019-02-08T01:45:33.358Z,28.73
2019-02-08T01:48:01.153Z,31.47
2019-02-08T01:50:29.170Z,28.30
2019-02-08T01:52:56.629Z,30.23
2019-02-08T01:55:24.168Z,29.50
2019-02-08T01:57:51.666Z,29.73
2019-02-08T02:00:20.732Z,28.93
2019-02-08T02:02:49.789Z,30.17
2019-02-08T02:05:17.220Z,29.90
2019-02-08T02:07:44.720Z,31.80
2019-02-08T02:10:16.041Z,30.43
2019-02-08T02:12:43.918Z,30.40
2019-02-08T02:15:11.337Z,30.40
2019-02-08T02:17:38.834Z,29.90
2019-02-08T02:20:07.794Z,29.57
2019-02-08T02:22:35.213Z,28.67
2019-02-08T02:25:02.738Z,28.23
2019-02-08T02:27:30.277Z,25.90
2019-02-08T02:29:57.752Z,27.90
2019-02-08T02:32:25.186Z,26.40
2019-02-08T02:34:52.535Z,24.37
2019-02-08T02:37:19.894Z,24.83
2019-02-08T02:39:47.615Z,25.57
2019-02-08T02:42:15.012Z,23.17
2019-02-08T02:44:42.451Z,22.87
2019-02-08T02:47:12.677Z,21.23
2019-02-08T02:49:41.978Z,20.87
2019-02-08T02:52:10.249Z,22.37
2019-02-08T02:54:37.604Z,22.67
2019-02-08T02:57:05.194Z,21.47
2019-02-08T02:59:32.594Z,21.43
2019-02-08T03:02:00.051Z,22.33
2019-02-08T03:04:27.522Z,24.47
2019-02-08T03:06:54.957Z,21.00
2019-02-08T03:09:22.388Z,22.27
2019-02-08T03:11:49.797Z,23.27
2019-02-08T03:14:17.968Z,22.23
2019-02-08T03:16:45.523Z,22.83
2019-02-08T03:19:13.014Z,22.20
2019-02-08T03:21:40.342Z,22.83
2019-02-08T03:24:12.980Z,22.90
2019-02-08T03:26:37.476Z,22.47
2019-02-08T03:29:04.953Z,21.57
2019-02-08T03:31:32.497Z,22.23
2019-02-08T03:34:00.079Z,21.00
2019-02-08T03:36:27.520Z,23.20
2019-02-08T03:38:54.869Z,23.30
2019-02-08T03:41:22.374Z,22.77
2019-02-08T03:43:49.805Z,22.00
2019-02-08T03:46:17.665Z,22.00
2019-02-08T03:48:45.177Z,21.37
2019-02-08T03:51:12.591Z,23.67
2019-02-08T03:53:40.106Z,23.00
2019-02-08T03:56:07.511Z,22.73
2019-02-08T03:58:34.950Z,22.83
2019-02-08T04:01:03.433Z,22.77
2019-02-08T04:03:30.913Z,21.33
2019-02-08T04:05:58.334Z,22.10
2019-02-08T04:08:25.803Z,22.03
2019-02-08T04:10:53.308Z,22.37
2019-02-08T04:13:20.773Z,23.63
2019-02-08T04:15:48.198Z,20.93
2019-02-08T04:18:15.620Z,20.80
2019-02-08T04:20:43.083Z,21.87
2019-02-08T04:23:10.626Z,22.10
2019-02-08T04:25:38.067Z,22.40
2019-02-08T04:28:05.512Z,23.67
2019-02-08T04:30:32.953Z,24.50
2019-02-08T04:33:00.810Z,22.17
2019-02-08T04:35:28.422Z,22.20
2019-02-08T04:37:56.011Z,21.57
2019-02-08T04:40:24.373Z,22.17
2019-02-08T04:42:51.834Z,23.43
2019-02-08T04:45:19.347Z,22.93
2019-02-08T04:47:46.753Z,23.37
2019-02-08T04:50:21.336Z,22.77
2019-02-08T04:52:49.036Z,22.93
2019-02-08T04:55:16.543Z,23.13
2019-02-08T04:57:43.952Z,22.63
2019-02-08T05:00:12.921Z,23.67
2019-02-08T05:02:40.462Z,23.87
2019-02-08T05:05:07.858Z,22.07
2019-02-08T05:07:35.301Z,24.27
2019-02-08T05:10:05.833Z,24.23
2019-02-08T05:12:33.351Z,22.70
2019-02-08T05:15:00.871Z,23.43
2019-02-08T05:17:28.428Z,21.60
2019-02-08T05:19:55.847Z,22.97
2019-02-08T05:22:23.351Z,22.63
2019-02-08T05:24:50.821Z,21.73
2019-02-08T05:27:18.164Z,22.60
2019-02-08T05:29:45.575Z,24.43
2019-02-08T05:32:13.118Z,22.83
2019-02-08T05:34:40.693Z,23.57
2019-02-08T05:37:08.167Z,23.00
2019-02-08T05:39:35.693Z,25.20
2019-02-08T05:42:03.211Z,24.30
2019-02-08T05:44:30.529Z,25.57
2019-02-08T05:46:58.019Z,25.80
2019-02-08T05:49:25.553Z,25.07
2019-02-08T05:51:52.953Z,26.07
2019-02-08T05:54:20.462Z,25.60
2019-02-08T05:56:47.952Z,25.93
2019-02-08T05:59:15.555Z,24.20
2019-02-08T06:01:42.938Z,25.07
2019-02-08T06:04:10.446Z,24.00
2019-02-08T06:06:37.840Z,24.90
2019-02-08T06:09:06.904Z,26.03
2019-02-08T06:11:34.327Z,26.37
2019-02-08T06:14:01.923Z,27.63
2019-02-08T06:16:30.387Z,28.63
2019-02-08T06:18:57.826Z,30.10
2019-02-08T06:21:25.301Z,26.97
2019-02-08T06:23:52.827Z,27.97
2019-02-08T06:26:20.232Z,27.07
2019-02-08T06:28:47.699Z,28.13
2019-02-08T06:31:15.235Z,28.90
2019-02-08T06:33:42.583Z,26.00
2019-02-08T06:36:09.994Z,28.10
2019-02-08T06:38:37.420Z,28.70
2019-02-08T06:41:04.884Z,28.17
2019-02-08T06:43:32.336Z,27.67
2019-02-08T06:45:59.905Z,28.87
2019-02-08T06:48:30.403Z,31.10
2019-02-08T06:51:00.008Z,32.43
2019-02-08T06:53:27.849Z,32.50
2019-02-08T06:55:55.389Z,30.43
2019-02-08T06:58:36.257Z,31.50
2019-02-08T07:01:14.914Z,30.97
2019-02-08T07:03:55.940Z,31.67
2019-02-08T07:06:30.643Z,32.00
2019-02-08T07:09:08.840Z,33.80
2019-02-08T07:11:50.195Z,31.93
2019-02-08T07:14:19.270Z,33.57
2019-02-08T07:16:58.527Z,33.70
2019-02-08T07:19:33.555Z,34.73
2019-02-08T07:22:11.846Z,35.33
2019-02-08T07:24:48.346Z,34.50
2019-02-08T07:27:17.823Z,36.57
2019-02-08T07:29:49.800Z,34.73
2019-02-08T07:32:27.626Z,38.00
2019-02-08T07:35:13.118Z,37.80
2019-02-08T07:37:45.235Z,35.10
2019-02-08T07:40:28.076Z,36.53
2019-02-08T07:43:09.130Z,35.40
2019-02-08T07:45:46.450Z,35.87
2019-02-08T07:48:24.932Z,36.17
2019-02-08T07:51:03.351Z,36.07
2019-02-08T07:53:32.508Z,38.10
2019-02-08T07:56:05.777Z,37.27
2019-02-08T07:58:39.788Z,36.07
2019-02-08T08:01:28.152Z,36.17
2019-02-08T08:04:01.466Z,35.33
2019-02-08T08:06:46.976Z,37.20
2019-02-08T08:09:25.026Z,37.43
2019-02-08T08:12:04.466Z,35.73
2019-02-08T08:14:33.610Z,36.87
2019-02-08T08:17:08.807Z,36.23
2019-02-08T08:19:47.187Z,38.30
2019-02-08T08:22:16.249Z,36.23
2019-02-08T08:24:55.004Z,37.57
2019-02-08T08:27:39.274Z,34.13
2019-02-08T08:32:47.906Z,35.50
2019-02-08T08:35:34.018Z,36.00
2019-02-08T08:38:03.110Z,36.63
2019-02-08T08:40:40.871Z,34.67
2019-02-08T08:43:18.771Z,33.67
2019-02-08T08:45:55.830Z,34.70
2019-02-08T08:48:27.575Z,36.07
2019-02-08T08:50:56.724Z,34.30
2019-02-08T08:53:31.314Z,37.47
2019-02-08T08:56:04.222Z,34.93
2019-02-08T08:58:48.209Z,34.30
2019-02-08T09:01:34.115Z,32.37
2019-02-08T09:04:24.171Z,35.13
2019-02-08T09:07:04.303Z,35.70
2019-02-08T09:09:41.842Z,35.23
2019-02-08T09:12:25.718Z,37.00
2019-02-08T09:14:55.883Z,36.17
2019-02-08T09:17:27.680Z,34.50
2019-02-08T09:20:13.241Z,42.80
2019-02-08T09:22:55.726Z,41.53
2019-02-08T09:25:33.852Z,43.70
2019-02-08T09:28:03.827Z,43.30
2019-02-08T09:30:37.891Z,40.77
2019-02-08T09:33:23.899Z,41.30
2019-02-08T09:35:55.976Z,41.20
2019-02-08T09:38:40.406Z,41.47
2019-02-08T09:41:26.170Z,40.57
2019-02-08T09:44:01.185Z,39.63
2019-02-08T09:46:30.215Z,38.70
2019-02-08T09:49:02.418Z,40.20
2019-02-08T09:51:47.264Z,39.67
2019-02-08T09:54:27.413Z,38.90
2019-02-08T09:57:02.240Z,39.10
2019-02-08T09:59:46.543Z,57.23
2019-02-08T10:02:15.509Z,37.97
2019-02-08T10:05:01.251Z,37.43
2019-02-08T10:07:47.051Z,39.07
2019-02-08T10:10:22.891Z,37.57
2019-02-08T10:12:54.681Z,38.43
2019-02-08T10:15:43.157Z,36.13
2019-02-08T10:18:24.159Z,37.50
2019-02-08T10:20:54.200Z,36.23
2019-02-08T10:23:26.221Z,38.43
2019-02-08T10:26:07.549Z,39.83
2019-02-08T10:28:56.372Z,36.53
2019-02-08T10:32:02.957Z,37.87
2019-02-08T10:34:50.302Z,40.37
2019-02-08T10:37:36.029Z,38.77
2019-02-08T10:40:17.453Z,36.00
2019-02-08T10:42:49.614Z,39.07
2019-02-08T10:45:26.212Z,41.53
2019-02-08T10:48:05.253Z,39.50
2019-02-08T10:50:43.603Z,38.57
2019-02-08T10:53:16.093Z,41.43
2019-02-08T10:56:01.524Z,41.77
2019-02-08T10:58:42.663Z,41.93
2019-02-08T11:01:28.586Z,40.27
2019-02-08T11:04:09.785Z,37.07
2019-02-08T11:06:44.676Z,34.07
2019-02-08T11:09:22.440Z,32.73
2019-02-08T11:12:07.822Z,40.33
2019-02-08T11:14:36.951Z,36.77
2019-02-08T11:17:11.537Z,36.83
2019-02-08T11:19:38.519Z,35.77
2019-02-08T11:22:06.056Z,32.97
2019-02-08T11:24:33.468Z,31.83
2019-02-08T11:27:01.853Z,31.63
2019-02-08T11:29:29.395Z,33.20
2019-02-08T11:31:56.969Z,31.10
2019-02-08T11:34:25.151Z,30.93
2019-02-08T11:36:52.793Z,30.60
2019-02-08T11:39:20.261Z,31.30
2019-02-08T11:41:47.816Z,32.93
2019-02-08T11:44:15.276Z,32.73
2019-02-08T11:46:42.667Z,33.60
2019-02-08T11:49:11.858Z,33.30
2019-02-08T11:51:39.308Z,34.37
2019-02-08T11:54:06.996Z,33.57
2019-02-08T11:56:37.433Z,34.27
2019-02-08T11:59:07.210Z,34.47
2019-02-08T12:01:36.327Z,33.53
2019-02-08T12:04:04.228Z,30.93
2019-02-08T12:06:31.551Z,29.93
2019-02-08T12:08:58.920Z,31.50
2019-02-08T12:11:26.392Z,30.90
2019-02-08T12:13:53.948Z,30.13
2019-02-08T12:16:21.309Z,29.90
2019-02-08T12:18:48.872Z,33.03
2019-02-08T12:21:16.338Z,31.60
2019-02-08T12:23:43.911Z,32.33
2019-02-08T12:26:11.450Z,32.07
2019-02-08T12:28:41.110Z,31.97
2019-02-08T12:31:08.542Z,29.67
2019-02-08T12:33:35.944Z,29.77
2019-02-08T12:36:03.404Z,30.07
2019-02-08T12:38:30.823Z,30.97
2019-02-08T12:40:59.496Z,33.10
2019-02-08T12:43:27.062Z,31.83
2019-02-08T12:45:54.556Z,32.27
2019-02-08T12:48:22.034Z,36.95
2019-02-08T12:50:49.391Z,34.17
2019-02-08T12:53:16.798Z,32.90
2019-02-08T12:55:44.363Z,30.93
2019-02-08T12:58:11.832Z,30.90
2019-02-08T13:00:39.280Z,31.13
2019-02-08T13:03:06.932Z,32.03
2019-02-08T13:05:34.353Z,30.70
2019-02-08T13:08:02.110Z,29.37
2019-02-08T13:10:31.268Z,29.50
2019-02-08T13:12:59.225Z,29.17
2019-02-08T13:15:26.788Z,30.00
2019-02-08T13:17:54.254Z,31.83
2019-02-08T13:20:24.745Z,29.93
2019-02-08T13:22:52.212Z,27.27
2019-02-08T13:25:21.366Z,26.03
2019-02-08T13:27:48.937Z,26.03
2019-02-08T13:30:26.700Z,25.77
2019-02-08T13:32:54.158Z,24.37
2019-02-08T13:35:21.672Z,23.40
2019-02-08T13:37:49.358Z,23.47
2019-02-08T13:40:21.360Z,23.90
2019-02-08T13:42:50.254Z,24.50
2019-02-08T13:45:18.012Z,24.43
2019-02-08T13:47:46.068Z,25.33
2019-02-08T13:50:15.117Z,24.60
2019-02-08T13:52:42.673Z,25.30
2019-02-08T13:55:11.768Z,27.63
2019-02-08T13:57:39.238Z,26.17
2019-02-08T14:00:12.039Z,24.93
2019-02-08T14:02:39.478Z,24.70
2019-02-08T14:05:07.756Z,24.43
2019-02-08T14:07:35.226Z,22.77
2019-02-08T14:10:02.717Z,23.83
2019-02-08T14:12:30.152Z,23.73
2019-02-08T14:14:57.627Z,23.40
2019-02-08T14:17:25.086Z,23.47
2019-02-08T14:19:52.519Z,24.53
2019-02-08T14:22:20.162Z,23.30
2019-02-08T14:24:47.648Z,24.03
2019-02-08T14:27:15.003Z,24.27
2019-02-08T14:29:42.505Z,25.23
2019-02-08T14:32:09.876Z,25.80
2019-02-08T14:34:43.543Z,26.57
2019-02-08T14:37:06.472Z,28.03
2019-02-08T14:39:33.963Z,27.80
2019-02-08T14:42:01.397Z,27.77
2019-02-08T14:44:28.918Z,27.87
2019-02-08T14:46:56.402Z,28.47
2019-02-08T14:49:23.935Z,29.50
2019-02-08T14:51:51.424Z,30.13
2019-02-08T14:54:18.810Z,30.40
2019-02-08T14:56:46.319Z,30.43
2019-02-08T14:59:14.417Z,32.97
2019-02-08T15:01:41.920Z,35.90
2019-02-08T15:04:09.316Z,36.80
2019-02-08T15:06:36.825Z,37.67
2019-02-08T15:09:05.837Z,36.80
2019-02-08T15:11:33.486Z,35.43
2019-02-08T15:14:00.933Z,34.07
2019-02-08T15:16:28.371Z,35.53
2019-02-08T15:18:55.873Z,33.87
2019-02-08T15:21:23.422Z,34.10
2019-02-08T15:23:51.525Z,31.17
2019-02-08T15:26:19.044Z,32.70
2019-02-08T15:28:46.392Z,35.83
2019-02-08T15:31:13.913Z,35.17
2019-02-08T15:33:41.391Z,36.27
2019-02-08T15:36:08.790Z,36.27
2019-02-08T15:38:36.385Z,37.00
2019-02-08T15:41:05.386Z,41.23
2019-02-08T15:43:32.835Z,39.97
2019-02-08T15:46:00.466Z,45.27
2019-02-08T15:48:27.937Z,44.77
2019-02-08T15:50:55.389Z,49.77
2019-02-08T15:53:22.908Z,50.53
2019-02-08T15:55:54.973Z,54.10
2019-02-08T15:58:22.535Z,55.67
2019-02-08T16:00:50.219Z,57.30
2019-02-08T16:03:17.723Z,59.80
2019-02-08T16:05:45.169Z,58.80
2019-02-08T16:08:12.704Z,59.07
2019-02-08T16:10:40.151Z,58.53
2019-02-08T16:13:07.601Z,60.03
2019-02-08T16:15:35.113Z,59.03
2019-02-08T16:18:04.155Z,61.33
2019-02-08T16:20:31.701Z,71.83
2019-02-08T16:22:59.621Z,70.70
2019-02-08T16:25:30.031Z,68.50
2019-02-08T16:27:57.511Z,64.73
2019-02-08T16:30:28.733Z,61.13
2019-02-08T16:32:56.131Z,56.67
2019-02-08T16:35:23.661Z,58.37
2019-02-08T16:37:51.271Z,56.40
2019-02-08T16:40:19.626Z,54.63
2019-02-08T16:42:47.160Z,51.17
2019-02-08T16:45:33.893Z,54.07
2019-02-08T16:48:01.636Z,53.57
2019-02-08T16:50:30.045Z,57.43
2019-02-08T16:52:57.543Z,63.43
2019-02-08T16:55:24.909Z,66.07
2019-02-08T16:57:52.429Z,68.57
2019-02-08T17:00:26.833Z,65.37
2019-02-08T17:02:54.727Z,67.23
2019-02-08T17:05:22.539Z,67.67
2019-02-08T17:07:50.042Z,63.50
2019-02-08T17:10:18.081Z,61.60
2019-02-08T17:12:45.536Z,53.33
2019-02-08T17:15:14.604Z,54.70
2019-02-08T17:17:42.201Z,54.90
2019-02-08T17:20:11.263Z,54.43
2019-02-08T17:22:38.693Z,60.30
2019-02-08T17:25:06.169Z,62.23
2019-02-08T17:27:33.578Z,63.77
2019-02-08T17:30:01.069Z,64.80
2019-02-08T17:32:28.477Z,63.47
2019-02-08T17:34:55.972Z,63.40
2019-02-08T17:37:23.503Z,63.80
2019-02-08T17:39:52.479Z,68.87
2019-02-08T17:42:19.977Z,66.90
2019-02-08T17:44:47.429Z,63.47
2019-02-08T17:47:14.835Z,66.10
2019-02-08T17:49:42.299Z,69.80
2019-02-08T17:52:09.765Z,69.87
2019-02-08T17:54:37.168Z,69.57
2019-02-08T17:57:06.050Z,71.37
2019-02-08T17:59:33.622Z,76.47
2019-02-08T18:02:00.988Z,77.70
2019-02-08T18:04:28.514Z,75.57
2019-02-08T18:06:57.646Z,70.97
2019-02-08T18:09:25.168Z,71.40
2019-02-08T18:11:52.639Z,65.80
2019-02-08T18:14:20.166Z,62.50
2019-02-08T18:16:47.590Z,66.93
2019-02-08T18:19:15.074Z,66.17
2019-02-08T18:21:42.572Z,69.17
2019-02-08T18:24:10.032Z,77.77
2019-02-08T18:26:37.536Z,77.80
2019-02-08T18:29:05.002Z,75.83
2019-02-08T18:31:32.403Z,73.67
2019-02-08T18:33:59.846Z,72.77
2019-02-08T18:36:27.374Z,68.93
2019-02-08T18:38:54.832Z,69.03
2019-02-08T18:41:22.181Z,61.73
2019-02-08T18:43:49.624Z,59.57
2019-02-08T18:46:17.196Z,62.00
2019-02-08T18:48:44.656Z,58.97
2019-02-08T18:51:12.064Z,56.67
2019-02-08T18:53:39.566Z,54.67
2019-02-08T18:56:07.025Z,57.23
2019-02-08T18:58:34.460Z,56.37
2019-02-08T19:01:03.614Z,56.80
2019-02-08T19:03:30.994Z,59.70
2019-02-08T19:05:58.531Z,61.13
2019-02-08T19:08:26.027Z,64.13
2019-02-08T19:10:55.047Z,64.63
2019-02-08T19:13:22.504Z,64.10
2019-02-08T19:15:50.017Z,68.97
2019-02-08T19:18:17.422Z,69.53
2019-02-08T19:20:44.941Z,76.33
2019-02-08T19:23:12.400Z,75.80
2019-02-08T19:25:43.997Z,78.00
2019-02-08T19:28:11.889Z,80.23
2019-02-08T19:30:40.337Z,76.00
2019-02-08T19:33:09.433Z,74.60
2019-02-08T19:35:36.927Z,78.60
2019-02-08T19:38:05.074Z,75.13
2019-02-08T19:40:34.122Z,73.10
2019-02-08T19:43:01.616Z,73.90
2019-02-08T19:45:29.052Z,73.13
2019-02-08T19:47:56.492Z,73.37
2019-02-08T19:50:31.367Z,71.20
2019-02-08T19:52:58.929Z,72.37
2019-02-08T19:55:26.555Z,74.33
2019-02-08T19:57:54.083Z,76.00
2019-02-08T20:00:22.607Z,71.57
2019-02-08T20:02:50.024Z,75.57
2019-02-08T20:05:18.431Z,72.97
2019-02-08T20:07:46.043Z,76.00
2019-02-08T20:10:15.122Z,79.00
2019-02-08T20:12:42.717Z,75.13
2019-02-08T20:15:14.380Z,76.47
2019-02-08T20:17:41.878Z,79.83
2019-02-08T20:20:09.477Z,73.90
2019-02-08T20:22:36.849Z,75.37
2019-02-08T20:25:08.641Z,69.00
2019-02-08T20:27:36.157Z,69.20
2019-02-08T20:30:05.298Z,69.50
2019-02-08T20:32:32.751Z,69.93
2019-02-08T20:35:00.211Z,69.90
2019-02-08T20:37:27.621Z,68.53
2019-02-08T20:39:55.085Z,69.40
2019-02-08T20:42:24.116Z,66.17
2019-02-08T20:44:51.561Z,66.70
2019-02-08T20:47:18.983Z,66.90
2019-02-08T20:49:46.514Z,60.03
2019-02-08T20:52:13.947Z,60.17
2019-02-08T20:54:41.342Z,63.00
2019-02-08T20:57:08.765Z,63.33
2019-02-08T20:59:36.231Z,61.17
2019-02-08T21:02:03.553Z,59.70
2019-02-08T21:04:31.149Z,64.53
2019-02-08T21:06:58.633Z,65.00
2019-02-08T21:09:26.151Z,67.90
2019-02-08T21:11:53.643Z,74.73
2019-02-08T21:14:21.145Z,78.03
2019-02-08T21:16:48.643Z,76.07
2019-02-08T21:19:16.289Z,73.80
2019-02-08T21:21:43.750Z,73.63
2019-02-08T21:24:11.121Z,77.87
2019-02-08T21:26:38.631Z,81.47
2019-02-08T21:29:06.041Z,87.17
2019-02-08T21:31:33.546Z,88.60
2019-02-08T21:34:01.289Z,86.27
2019-02-08T21:36:28.881Z,91.50
2019-02-08T21:38:57.247Z,94.80
2019-02-08T21:41:24.867Z,90.70
2019-02-08T21:43:52.402Z,86.53
2019-02-08T21:46:21.423Z,82.37
2019-02-08T21:48:49.039Z,76.43
2019-02-08T21:51:16.546Z,74.43
2019-02-08T21:53:44.098Z,72.83
2019-02-08T21:56:11.581Z,71.10
2019-02-08T21:58:40.130Z,71.57
2019-02-08T22:01:07.681Z,70.37
2019-02-08T22:03:35.069Z,71.73
2019-02-08T22:06:02.791Z,71.23
2019-02-08T22:08:30.195Z,74.93
2019-02-08T22:10:57.735Z,73.23
2019-02-08T22:13:25.101Z,66.67
2019-02-08T22:15:52.621Z,70.90
2019-02-08T22:18:21.173Z,68.73
2019-02-08T22:20:48.703Z,68.27
2019-02-08T22:23:16.154Z,66.00
2019-02-08T22:25:43.671Z,67.87
2019-02-08T22:28:11.094Z,86.67
2019-02-08T22:30:40.346Z,94.63
2019-02-08T22:33:08.850Z,90.43
2019-02-08T22:35:36.351Z,89.17
2019-02-08T22:38:03.797Z,84.73
2019-02-08T22:40:31.292Z,86.87
2019-02-08T22:42:58.734Z,92.23
2019-02-08T22:45:27.879Z,96.80
2019-02-08T22:47:55.355Z,96.37
2019-02-08T22:50:22.864Z,89.47
2019-02-08T22:52:51.387Z,86.80
2019-02-08T22:55:26.655Z,87.50
2019-02-08T22:57:54.136Z,85.63
2019-02-08T23:00:36.629Z,82.57
2019-02-08T23:03:04.561Z,92.10
2019-02-08T23:05:32.374Z,93.70
2019-02-08T23:08:00.173Z,99.00
2019-02-08T23:10:27.954Z,98.10
2019-02-08T23:12:55.439Z,105.50
2019-02-08T23:15:23.321Z,97.47
2019-02-08T23:17:50.844Z,102.67
2019-02-08T23:20:19.338Z,100.83
2019-02-08T23:22:46.674Z,100.53
2019-02-08T23:25:14.039Z,105.53
2019-02-08T23:27:41.542Z,101.03
2019-02-08T23:30:13.505Z,106.87
2019-02-08T23:32:41.322Z,103.37
2019-02-08T23:35:09.434Z,97.37
2019-02-08T23:37:37.086Z,98.47
2019-02-08T23:40:06.178Z,93.40
2019-02-08T23:42:33.597Z,96.30
2019-02-08T23:45:02.328Z,97.57
2019-02-08T23:47:29.682Z,99.23
2019-02-08T23:49:57.352Z,106.10
2019-02-08T23:52:25.070Z,114.77
2019-02-08T23:54:53.390Z,114.50
2019-02-08T23:57:21.340Z,115.97
2019-02-08T23:59:49.087Z,122.30
